createdAt,value
2023-02-11T00:02:30.022Z,-6.49
2023-02-11T00:04:57.780Z,-6.49
2023-02-11T00:07:24.919Z,-6.54
2023-02-11T00:12:38.364Z,-6.56
2023-02-11T00:15:07.940Z,-6.59
2023-02-11T00:17:36.765Z,-6.62
2023-02-11T00:20:07.193Z,-6.61
2023-02-11T00:22:35.170Z,-6.59
2023-02-11T00:25:04.903Z,-6.63
2023-02-11T00:27:32.571Z,-6.63
2023-02-11T00:30:02.325Z,-6.61
2023-02-11T00:32:29.424Z,-6.56
2023-02-11T00:35:03.200Z,-6.55
2023-02-11T00:37:31.907Z,-6.60
2023-02-11T00:40:01.215Z,-6.59
2023-02-11T00:42:28.238Z,-6.64
2023-02-11T00:44:55.756Z,-6.58
2023-02-11T00:47:23.010Z,-6.61
2023-02-11T00:49:50.382Z,-6.67
2023-02-11T00:52:17.412Z,-6.61
2023-02-11T00:54:45.042Z,-6.66
2023-02-11T00:57:12.263Z,-6.67
2023-02-11T00:59:40.442Z,-6.74
2023-02-11T01:02:07.572Z,-6.80
2023-02-11T01:04:35.458Z,-6.85
2023-02-11T01:07:02.582Z,-6.85
2023-02-11T01:09:30.151Z,-6.93
2023-02-11T01:11:57.164Z,-6.99
2023-02-11T01:14:24.873Z,-7.05
2023-02-11T01:16:52.682Z,-7.01
2023-02-11T01:19:20.654Z,-7.04
2023-02-11T01:21:47.869Z,-7.10
2023-02-11T01:24:16.384Z,-7.06
2023-02-11T01:26:43.384Z,-7.05
2023-02-11T01:29:10.772Z,-7.06
2023-02-11T01:31:38.263Z,-7.06
2023-02-11T01:34:05.760Z,-7.07
2023-02-11T01:36:33.048Z,-7.05
2023-02-11T01:39:00.418Z,-7.01
2023-02-11T01:41:27.496Z,-6.97
2023-02-11T01:43:54.880Z,-6.94
2023-02-11T01:46:38.753Z,-6.75
2023-02-11T01:49:10.340Z,-6.65
2023-02-11T01:51:42.405Z,-6.53
2023-02-11T01:54:33.653Z,-6.47
2023-02-11T01:57:24.203Z,-6.41
2023-02-11T02:00:00.565Z,-6.32
2023-02-11T02:02:37.787Z,-6.28
2023-02-11T02:05:14.957Z,-6.18
2023-02-11T02:07:56.541Z,-6.14
2023-02-11T02:10:27.208Z,-6.08
2023-02-11T02:12:54.824Z,-6.09
2023-02-11T02:15:24.552Z,-6.12
2023-02-11T02:18:17.551Z,-6.18
2023-02-11T02:20:50.886Z,-6.17
2023-02-11T02:23:26.874Z,-6.22
2023-02-11T02:26:13.003Z,-6.28
2023-02-11T02:28:58.765Z,-6.36
2023-02-11T02:31:53.393Z,-6.42
2023-02-11T02:34:36.322Z,-6.51
2023-02-11T02:37:17.477Z,-6.54
2023-02-11T02:39:48.548Z,-6.56
2023-02-11T02:42:17.124Z,-6.59
2023-02-11T02:44:50.679Z,-6.59
2023-02-11T02:47:18.165Z,-6.64
2023-02-11T02:49:45.428Z,-6.62
2023-02-11T02:52:35.682Z,-6.59
2023-02-11T02:55:35.137Z,-6.65
2023-02-11T02:58:24.185Z,-6.63
2023-02-11T03:01:22.283Z,-6.61
2023-02-11T03:03:53.753Z,-6.61
2023-02-11T03:06:42.449Z,-6.61
2023-02-11T03:09:19.604Z,-6.60
2023-02-11T03:11:46.668Z,-6.69
2023-02-11T03:14:17.513Z,-6.67
2023-02-11T03:16:48.766Z,-6.75
2023-02-11T03:19:24.760Z,-6.79
2023-02-11T03:21:53.801Z,-6.85
2023-02-11T03:24:28.372Z,-6.84
2023-02-11T03:26:59.489Z,-6.85
2023-02-11T03:29:57.375Z,-6.93
2023-02-11T03:32:41.596Z,-6.88
2023-02-11T03:35:15.323Z,-6.88
2023-02-11T03:38:07.756Z,-6.87
2023-02-11T03:40:41.446Z,-6.93
2023-02-11T03:43:17.922Z,-6.91
2023-02-11T03:45:49.672Z,-6.94
2023-02-11T03:48:40.435Z,-6.79
2023-02-11T03:51:11.187Z,-6.76
2023-02-11T03:53:39.385Z,-6.63
2023-02-11T03:56:11.258Z,-6.50
2023-02-11T03:58:38.276Z,-6.39
2023-02-11T04:01:09.009Z,-6.22
2023-02-11T04:03:39.284Z,-6.14
2023-02-11T04:06:08.781Z,-6.12
2023-02-11T04:08:36.179Z,-6.05
2023-02-11T04:11:09.259Z,-5.85
2023-02-11T04:13:37.132Z,-5.77
2023-02-11T04:16:04.715Z,-5.77
2023-02-11T04:18:31.944Z,-5.67
2023-02-11T04:21:00.975Z,-5.65
2023-02-11T04:23:28.497Z,-5.65
2023-02-11T04:25:57.101Z,-5.65
2023-02-11T04:28:24.378Z,-5.61
2023-02-11T04:30:51.878Z,-5.58
2023-02-11T04:33:19.264Z,-5.53
2023-02-11T04:35:46.927Z,-5.47
2023-02-11T04:38:14.469Z,-5.38
2023-02-11T04:40:43.670Z,-5.35
2023-02-11T04:43:10.846Z,-5.21
2023-02-11T04:45:46.384Z,-5.17
2023-02-11T04:48:13.380Z,-5.23
2023-02-11T04:50:41.692Z,-5.21
2023-02-11T04:53:08.842Z,-5.25
2023-02-11T04:55:36.344Z,-5.20
2023-02-11T04:58:03.533Z,-5.20
2023-02-11T05:00:31.006Z,-5.08
2023-02-11T05:02:58.031Z,-5.10
2023-02-11T05:05:25.630Z,-5.05
2023-02-11T05:07:53.071Z,-4.93
2023-02-11T05:10:20.619Z,-4.94
2023-02-11T05:12:49.349Z,-4.94
2023-02-11T05:15:16.876Z,-4.88
2023-02-11T05:17:44.472Z,-4.89
2023-02-11T05:20:11.996Z,-4.81
2023-02-11T05:22:39.124Z,-4.78
2023-02-11T05:25:08.875Z,-4.74
2023-02-11T05:27:37.033Z,-4.78
2023-02-11T05:30:06.165Z,-4.73
2023-02-11T05:32:34.030Z,-4.65
2023-02-11T05:35:01.733Z,-4.68
2023-02-11T05:37:28.899Z,-4.64
2023-02-11T05:39:56.340Z,-4.55
2023-02-11T05:42:23.980Z,-4.42
2023-02-11T05:44:54.324Z,-4.32
2023-02-11T05:47:21.483Z,-4.27
2023-02-11T05:49:50.175Z,-4.24
2023-02-11T05:52:17.638Z,-4.15
2023-02-11T05:54:45.500Z,-4.18
2023-02-11T05:57:14.263Z,-4.12
2023-02-11T05:59:41.953Z,-4.05
2023-02-11T06:02:09.652Z,-4.03
2023-02-11T06:04:37.942Z,-3.93
2023-02-11T06:07:05.305Z,-3.82
2023-02-11T06:09:32.939Z,-3.78
2023-02-11T06:12:00.253Z,-3.64
2023-02-11T06:14:33.839Z,-3.57
2023-02-11T06:17:08.947Z,-3.61
2023-02-11T06:19:36.687Z,-3.51
2023-02-11T06:22:05.087Z,-3.42
2023-02-11T06:24:55.012Z,-3.35
2023-02-11T06:27:20.954Z,-3.23
2023-02-11T06:29:57.064Z,-3.18
2023-02-11T06:32:43.335Z,-3.11
2023-02-11T06:35:45.771Z,-3.02
2023-02-11T06:38:13.053Z,-3.00
2023-02-11T06:40:40.770Z,-2.90
2023-02-11T06:43:07.889Z,-2.84
2023-02-11T06:45:35.424Z,-2.84
2023-02-11T06:48:02.785Z,-2.76
2023-02-11T06:50:30.453Z,-2.74
2023-02-11T06:53:01.377Z,-2.68
2023-02-11T06:55:29.257Z,-2.56
2023-02-11T06:57:57.876Z,-2.44
2023-02-11T07:00:26.979Z,-2.33
2023-02-11T07:02:54.222Z,-2.29
2023-02-11T07:05:22.441Z,-2.24
2023-02-11T07:07:50.152Z,-2.21
2023-02-11T07:10:17.784Z,-2.09
2023-02-11T07:12:44.862Z,-1.97
2023-02-11T07:15:12.434Z,-1.81
2023-02-11T07:20:23.776Z,-1.59
2023-02-11T07:22:51.829Z,-1.62
2023-02-11T07:25:20.090Z,-1.63
2023-02-11T07:27:57.436Z,-1.64
2023-02-11T07:30:40.340Z,-1.47
2023-02-11T07:33:26.581Z,-1.44
2023-02-11T07:35:54.828Z,-1.39
2023-02-11T07:41:11.083Z,-1.12
2023-02-11T07:43:54.831Z,-1.04
2023-02-11T07:46:51.600Z,-0.87
2023-02-11T07:49:20.530Z,-0.82
2023-02-11T07:51:49.611Z,-0.64
2023-02-11T07:54:21.063Z,-0.53
2023-02-11T07:59:48.632Z,-0.28
2023-02-11T08:02:19.648Z,-0.17
2023-02-11T08:04:53.723Z,-0.05
2023-02-11T08:07:25.238Z,-0.02
2023-02-11T08:09:54.562Z,0.25
2023-02-11T08:12:24.894Z,0.34
2023-02-11T08:14:52.616Z,0.44
2023-02-11T08:17:22.772Z,0.43
2023-02-11T08:19:53.493Z,0.38
2023-02-11T08:22:24.616Z,0.42
2023-02-11T08:24:54.388Z,0.39
2023-02-11T08:27:22.287Z,0.18
2023-02-11T08:29:49.550Z,0.18
2023-02-11T08:32:18.779Z,0.16
2023-02-11T08:34:46.289Z,0.21
2023-02-11T08:37:16.058Z,0.28
2023-02-11T08:39:43.036Z,0.31
2023-02-11T08:42:10.904Z,0.37
2023-02-11T08:44:49.534Z,0.39
2023-02-11T08:47:21.005Z,0.43
2023-02-11T08:49:48.540Z,0.54
2023-02-11T08:52:16.340Z,0.67
2023-02-11T08:54:44.050Z,0.84
2023-02-11T08:57:11.602Z,0.97
2023-02-11T08:59:42.813Z,1.22
2023-02-11T09:02:14.306Z,1.47
2023-02-11T09:04:42.430Z,1.78
2023-02-11T09:07:10.352Z,2.09
2023-02-11T09:09:37.543Z,2.31
2023-02-11T09:14:47.459Z,2.82
2023-02-11T09:17:17.968Z,3.06
2023-02-11T09:19:47.447Z,3.23
2023-02-11T09:22:15.204Z,3.33
2023-02-11T09:24:52.832Z,3.48
2023-02-11T09:27:20.472Z,3.69
2023-02-11T09:29:50.716Z,5.10
2023-02-11T09:32:20.410Z,7.69
2023-02-11T09:34:48.488Z,9.50
2023-02-11T09:37:20.905Z,10.96
2023-02-11T09:39:48.162Z,11.83
2023-02-11T09:42:40.521Z,12.85
2023-02-11T09:45:34.414Z,13.69
2023-02-11T09:48:12.704Z,14.26
2023-02-11T09:50:43.952Z,14.30
2023-02-11T09:58:55.113Z,14.33
2023-02-11T10:01:41.454Z,13.66
2023-02-11T10:04:18.263Z,14.06
2023-02-11T10:06:50.931Z,14.19
2023-02-11T10:09:49.800Z,14.12
2023-02-11T10:12:48.438Z,14.59
2023-02-11T10:15:41.021Z,15.47
2023-02-11T10:18:33.556Z,15.51
2023-02-11T10:21:49.352Z,15.11
2023-02-11T10:24:19.846Z,14.72
2023-02-11T10:26:49.812Z,14.56
2023-02-11T10:29:35.710Z,14.94
2023-02-11T10:32:30.922Z,15.51
2023-02-11T10:38:09.255Z,14.50
2023-02-11T10:40:36.873Z,14.12
2023-02-11T10:43:18.727Z,13.26
2023-02-11T10:45:56.925Z,12.70
2023-02-11T10:51:35.379Z,11.53
2023-02-11T10:54:19.756Z,10.94
2023-02-11T10:59:44.294Z,10.07
2023-02-11T11:02:44.575Z,9.68
2023-02-11T11:05:22.122Z,8.70
2023-02-11T11:08:00.394Z,8.11
2023-02-11T11:16:37.553Z,7.70
2023-02-11T11:19:07.460Z,7.72
2023-02-11T11:21:49.833Z,7.76
2023-02-11T11:24:34.716Z,7.43
2023-02-11T11:27:05.593Z,7.14
2023-02-11T11:29:39.658Z,6.85
2023-02-11T11:32:20.202Z,6.79
2023-02-11T11:34:56.168Z,6.31
2023-02-11T11:37:28.887Z,5.85
2023-02-11T11:40:22.812Z,5.83
2023-02-11T11:43:17.588Z,5.85
2023-02-11T11:46:02.173Z,5.75
2023-02-11T11:48:42.759Z,5.55
2023-02-11T11:51:13.749Z,5.66
2023-02-11T11:53:46.193Z,5.85
2023-02-11T11:56:27.651Z,6.32
2023-02-11T11:59:04.351Z,6.53
2023-02-11T12:01:51.679Z,6.33
2023-02-11T12:04:37.622Z,6.04
2023-02-11T12:07:46.655Z,5.84
2023-02-11T12:10:33.283Z,5.96
2023-02-11T12:13:28.500Z,6.43
2023-02-11T12:16:12.092Z,7.12
2023-02-11T12:19:17.246Z,8.08
2023-02-11T12:22:12.664Z,8.74
2023-02-11T12:25:17.489Z,8.76
2023-02-11T12:27:55.536Z,8.86
2023-02-11T12:30:22.758Z,9.15
2023-02-11T12:33:27.674Z,9.21
2023-02-11T12:39:40.423Z,10.48
2023-02-11T12:42:29.142Z,10.31
2023-02-11T12:44:57.037Z,10.21
2023-02-11T12:47:44.742Z,9.62
2023-02-11T12:50:30.805Z,8.89
2023-02-11T12:53:25.494Z,8.22
2023-02-11T12:55:56.588Z,7.35
2023-02-11T13:01:45.278Z,7.12
2023-02-11T13:04:20.417Z,6.80
2023-02-11T13:07:08.685Z,6.88
2023-02-11T13:12:56.665Z,6.91
2023-02-11T13:15:25.939Z,7.18
2023-02-11T13:17:57.653Z,7.13
2023-02-11T13:21:03.547Z,6.65
2023-02-11T13:24:00.793Z,6.07
2023-02-11T13:26:47.737Z,5.67
2023-02-11T13:29:20.793Z,5.36
2023-02-11T13:32:21.572Z,5.19
2023-02-11T13:34:52.787Z,5.08
2023-02-11T13:37:24.359Z,5.07
2023-02-11T13:39:58.775Z,5.28
2023-02-11T13:42:26.725Z,5.68
2023-02-11T13:44:58.844Z,6.13
2023-02-11T13:47:29.266Z,6.33
2023-02-11T13:55:35.026Z,5.56
2023-02-11T13:58:08.548Z,5.26
2023-02-11T14:00:37.384Z,4.88
2023-02-11T14:03:32.954Z,4.55
2023-02-11T14:06:30.103Z,4.30
2023-02-11T14:09:17.417Z,4.22
2023-02-11T14:11:49.461Z,4.13
2023-02-11T14:14:32.638Z,3.98
2023-02-11T14:17:02.030Z,3.94
2023-02-11T14:19:39.885Z,3.90
2023-02-11T14:25:28.028Z,3.74
2023-02-11T14:28:25.249Z,3.74
2023-02-11T14:31:08.964Z,3.68
2023-02-11T14:38:04.350Z,3.64
2023-02-11T14:41:02.938Z,3.50
2023-02-11T14:43:50.278Z,3.34
2023-02-11T14:46:22.227Z,3.21
2023-02-11T14:48:53.338Z,3.12
2023-02-11T14:51:39.666Z,2.95
2023-02-11T14:54:17.187Z,2.91
2023-02-11T14:56:47.800Z,2.80
2023-02-11T14:59:23.070Z,2.70
2023-02-11T15:01:54.898Z,2.60
2023-02-11T15:04:27.193Z,2.50
2023-02-11T15:06:58.267Z,2.37
2023-02-11T15:09:34.511Z,2.35
2023-02-11T15:12:02.047Z,2.22
2023-02-11T15:14:33.675Z,2.15
2023-02-11T15:17:08.277Z,2.09
2023-02-11T15:19:40.017Z,1.98
2023-02-11T15:22:18.658Z,1.88
2023-02-11T15:24:57.651Z,1.79
2023-02-11T15:27:25.973Z,1.76
2023-02-11T15:29:53.147Z,1.65
2023-02-11T15:32:23.964Z,1.53
2023-02-11T15:34:54.340Z,1.51
2023-02-11T15:37:29.963Z,1.42
2023-02-11T15:40:19.359Z,1.36
2023-02-11T15:43:07.781Z,1.26
2023-02-11T15:45:41.732Z,1.21
2023-02-11T15:48:21.392Z,1.22
2023-02-11T15:51:00.474Z,1.15
2023-02-11T15:53:53.743Z,1.04
2023-02-11T15:56:26.632Z,0.99
2023-02-11T15:58:57.338Z,0.95
2023-02-11T16:04:31.178Z,0.85
2023-02-11T16:06:58.356Z,0.76
2023-02-11T16:09:36.549Z,0.76
2023-02-11T16:12:22.677Z,0.70
2023-02-11T16:14:52.647Z,0.56
2023-02-11T16:17:25.344Z,0.55
2023-02-11T16:19:57.654Z,0.51
2023-02-11T16:22:35.447Z,0.46
2023-02-11T16:25:02.948Z,0.42
2023-02-11T16:27:38.157Z,0.33
2023-02-11T16:30:40.540Z,0.28
2023-02-11T16:33:11.254Z,0.26
2023-02-11T16:35:38.701Z,0.15
2023-02-11T16:38:06.441Z,0.11
2023-02-11T16:40:38.687Z,0.01
2023-02-11T16:43:06.734Z,0.02
2023-02-11T16:45:42.863Z,-0.04
2023-02-11T16:48:16.903Z,-0.13
2023-02-11T16:51:34.423Z,-0.20
2023-02-11T16:54:06.327Z,-0.28
2023-02-11T16:56:34.286Z,-0.35
2023-02-11T16:59:04.145Z,-0.41
2023-02-11T17:01:32.765Z,-0.41
2023-02-11T17:04:00.311Z,-0.51
2023-02-11T17:06:28.741Z,-0.53
2023-02-11T17:08:55.806Z,-0.55
2023-02-11T17:11:23.278Z,-0.60
2023-02-11T17:13:50.493Z,-0.71
2023-02-11T17:16:21.041Z,-0.71
2023-02-11T17:18:49.153Z,-0.74
2023-02-11T17:21:16.951Z,-0.80
2023-02-11T17:23:45.872Z,-0.78
2023-02-11T17:26:13.200Z,-0.79
2023-02-11T17:28:40.345Z,-0.88
2023-02-11T17:31:09.595Z,-0.85
2023-02-11T17:33:37.884Z,-0.88
2023-02-11T17:36:07.293Z,-0.85
2023-02-11T17:38:35.613Z,-0.92
2023-02-11T17:41:04.917Z,-0.95
2023-02-11T17:43:32.185Z,-0.97
2023-02-11T17:45:59.705Z,-1.02
2023-02-11T17:48:26.909Z,-1.06
2023-02-11T17:50:54.269Z,-1.08
2023-02-11T17:53:21.235Z,-1.11
2023-02-11T17:55:48.856Z,-1.10
2023-02-11T17:58:16.329Z,-1.15
2023-02-11T18:00:43.819Z,-1.15
2023-02-11T18:03:10.859Z,-1.16
2023-02-11T18:05:38.828Z,-1.26
2023-02-11T18:08:07.717Z,-1.25
2023-02-11T18:10:36.296Z,-1.20
2023-02-11T18:13:08.039Z,-1.24
2023-02-11T18:15:35.981Z,-1.24
2023-02-11T18:18:05.903Z,-1.36
2023-02-11T18:23:24.329Z,-1.33
2023-02-11T18:25:58.110Z,-1.37
2023-02-11T18:28:27.365Z,-1.46
2023-02-11T18:31:01.384Z,-1.48
2023-02-11T18:33:30.049Z,-1.49
2023-02-11T18:35:57.921Z,-1.51
2023-02-11T18:38:26.106Z,-1.54
2023-02-11T18:40:57.849Z,-1.56
2023-02-11T18:43:26.106Z,-1.54
2023-02-11T18:45:54.895Z,-1.58
2023-02-11T18:48:23.014Z,-1.58
2023-02-11T18:50:50.520Z,-1.54
2023-02-11T18:53:18.915Z,-1.57
2023-02-11T18:55:48.492Z,-1.48
2023-02-11T18:58:23.291Z,-1.48
2023-02-11T19:00:51.483Z,-1.45
2023-02-11T19:03:22.764Z,-1.49
2023-02-11T19:05:50.924Z,-1.49
2023-02-11T19:08:20.263Z,-1.43
2023-02-11T19:10:56.712Z,-1.44
2023-02-11T19:13:49.549Z,-1.40
2023-02-11T19:16:20.116Z,-1.43
2023-02-11T19:18:47.334Z,-1.41
2023-02-11T19:21:14.846Z,-1.36
2023-02-11T19:23:44.360Z,-1.38
2023-02-11T19:26:11.752Z,-1.40
2023-02-11T19:28:39.477Z,-1.45
2023-02-11T19:31:09.244Z,-1.43
2023-02-11T19:33:36.730Z,-1.46
2023-02-11T19:36:06.052Z,-1.38
2023-02-11T19:38:33.194Z,-1.36
2023-02-11T19:41:00.650Z,-1.33
2023-02-11T19:43:28.069Z,-1.39
2023-02-11T19:45:59.416Z,-1.26
2023-02-11T19:48:26.684Z,-1.26
2023-02-11T19:50:54.738Z,-1.21
2023-02-11T19:53:21.898Z,-1.15
2023-02-11T19:55:52.654Z,-1.19
2023-02-11T19:58:19.856Z,-1.16
2023-02-11T20:00:47.376Z,-1.17
2023-02-11T20:03:14.529Z,-1.21
2023-02-11T20:05:47.086Z,-1.14
2023-02-11T20:08:17.191Z,-1.23
2023-02-11T20:10:44.595Z,-1.16
2023-02-11T20:13:14.021Z,-1.25
2023-02-11T20:15:42.236Z,-1.34
2023-02-11T20:18:09.323Z,-1.37
2023-02-11T20:20:44.277Z,-1.47
2023-02-11T20:23:41.212Z,-1.49
2023-02-11T20:26:21.665Z,-1.53
2023-02-11T20:28:51.106Z,-1.58
2023-02-11T20:31:18.923Z,-1.56
2023-02-11T20:33:48.689Z,-1.67
2023-02-11T20:36:23.779Z,-1.59
2023-02-11T20:38:52.520Z,-1.60
2023-02-11T20:41:26.234Z,-1.52
2023-02-11T20:43:55.899Z,-1.58
2023-02-11T20:46:29.194Z,-1.50
2023-02-11T20:48:58.407Z,-1.53
2023-02-11T20:51:30.616Z,-1.54
2023-02-11T20:53:58.506Z,-1.54
2023-02-11T20:56:30.008Z,-1.55
2023-02-11T20:58:59.932Z,-1.58
2023-02-11T21:01:41.076Z,-1.50
2023-02-11T21:04:12.428Z,-1.50
2023-02-11T21:06:46.998Z,-1.47
2023-02-11T21:09:17.674Z,-1.42
2023-02-11T21:11:45.006Z,-1.38
2023-02-11T21:14:12.912Z,-1.40
2023-02-11T21:16:40.328Z,-1.44
2023-02-11T21:19:07.384Z,-1.47
2023-02-11T21:21:37.209Z,-1.45
2023-02-11T21:24:06.748Z,-1.37
2023-02-11T21:26:35.739Z,-1.42
2023-02-11T21:29:07.320Z,-1.36
2023-02-11T21:31:36.250Z,-1.34
2023-02-11T21:34:03.469Z,-1.35
2023-02-11T21:36:31.433Z,-1.34
2023-02-11T21:38:58.878Z,-1.27
2023-02-11T21:41:28.179Z,-1.27
2023-02-11T21:43:55.350Z,-1.30
2023-02-11T21:46:23.491Z,-1.23
2023-02-11T21:48:50.685Z,-1.25
2023-02-11T21:51:21.157Z,-1.22
2023-02-11T21:53:48.187Z,-1.26
2023-02-11T21:56:18.581Z,-1.20
2023-02-11T21:58:49.204Z,-1.22
2023-02-11T22:01:25.679Z,-1.25
2023-02-11T22:03:52.859Z,-1.33
2023-02-11T22:06:26.400Z,-1.27
2023-02-11T22:08:55.020Z,-1.29
2023-02-11T22:11:24.363Z,-1.25
2023-02-11T22:13:56.496Z,-1.21
2023-02-11T22:16:25.874Z,-1.22
2023-02-11T22:18:53.496Z,-1.20
2023-02-11T22:21:22.698Z,-1.26
2023-02-11T22:23:52.052Z,-1.24
2023-02-11T22:26:23.911Z,-1.22
2023-02-11T22:28:52.224Z,-1.21
2023-02-11T22:31:22.821Z,-1.22
2023-02-11T22:33:51.151Z,-1.14
2023-02-11T22:36:39.384Z,-1.10
2023-02-11T22:39:15.313Z,-1.07
2023-02-11T22:41:44.583Z,-1.02
2023-02-11T22:44:22.539Z,-0.96
2023-02-11T22:46:50.990Z,-0.92
2023-02-11T22:49:20.019Z,-0.89
2023-02-11T22:51:48.401Z,-0.91
2023-02-11T22:54:18.562Z,-0.87
2023-02-11T22:56:49.679Z,-0.88
2023-02-11T22:59:17.153Z,-0.82
2023-02-11T23:01:45.117Z,-0.81
2023-02-11T23:04:14.944Z,-0.74
2023-02-11T23:06:43.232Z,-0.73
2023-02-11T23:09:13.957Z,-0.74
2023-02-11T23:11:41.770Z,-0.73
2023-02-11T23:14:12.356Z,-0.70
2023-02-11T23:16:40.021Z,-0.65
2023-02-11T23:19:08.953Z,-0.69
2023-02-11T23:21:38.845Z,-0.64
2023-02-11T23:24:10.556Z,-0.61
2023-02-11T23:26:40.194Z,-0.60
2023-02-11T23:29:07.536Z,-0.55
2023-02-11T23:31:39.896Z,-0.55
2023-02-11T23:34:09.103Z,-0.57
2023-02-11T23:36:37.178Z,-0.58
2023-02-11T23:39:05.061Z,-0.61
2023-02-11T23:41:34.445Z,-0.58
2023-02-11T23:44:01.484Z,-0.60
2023-02-11T23:46:28.942Z,-0.66
2023-02-11T23:48:56.296Z,-0.58
2023-02-11T23:51:24.013Z,-0.52
2023-02-11T23:53:51.755Z,-0.48
2023-02-11T23:56:21.495Z,-0.41
2023-02-11T23:58:49.991Z,-0.38
